createdAt,value
2019-01-10T00:00:14.863Z,0.90
2019-01-10T00:02:45.158Z,0.65
2019-01-10T00:05:16.068Z,1.45
2019-01-10T00:07:46.055Z,1.30
2019-01-10T00:10:17.684Z,0.80
2019-01-10T00:12:47.955Z,1.02
2019-01-10T00:15:19.733Z,0.80
2019-01-10T00:17:50.538Z,0.93
2019-01-10T00:20:21.342Z,0.80
2019-01-10T00:22:52.231Z,0.88
2019-01-10T00:25:22.433Z,1.02
2019-01-10T00:27:53.254Z,0.90
2019-01-10T00:30:23.706Z,1.12
2019-01-10T00:32:53.884Z,1.12
2019-01-10T00:35:24.302Z,1.17
2019-01-10T00:37:54.704Z,1.02
2019-01-10T00:40:25.343Z,1.17
2019-01-10T00:42:55.462Z,1.60
2019-01-10T00:45:25.859Z,1.25
2019-01-10T00:47:56.205Z,1.20
2019-01-10T00:50:26.297Z,0.80
2019-01-10T00:52:56.982Z,0.93
2019-01-10T00:55:27.706Z,1.52
2019-01-10T00:57:58.722Z,1.10
2019-01-10T01:00:28.984Z,0.90
2019-01-10T01:02:59.058Z,0.80
2019-01-10T01:05:29.871Z,1.15
2019-01-10T01:08:00.257Z,1.40
2019-01-10T01:10:30.566Z,1.15
2019-01-10T01:13:01.439Z,0.90
2019-01-10T01:15:32.099Z,1.00
2019-01-10T01:18:02.412Z,1.40
2019-01-10T01:20:32.882Z,1.82
2019-01-10T01:23:03.462Z,0.95
2019-01-10T01:25:35.466Z,1.12
2019-01-10T01:28:06.215Z,1.55
2019-01-10T01:30:36.429Z,1.12
2019-01-10T01:33:06.596Z,1.00
2019-01-10T01:35:37.088Z,1.50
2019-01-10T01:38:08.984Z,1.40
2019-01-10T01:40:39.472Z,1.25
2019-01-10T01:43:09.794Z,1.05
2019-01-10T01:45:39.948Z,1.20
2019-01-10T01:48:10.166Z,1.40
2019-01-10T01:50:40.858Z,1.37
2019-01-10T01:53:11.044Z,1.22
2019-01-10T01:55:41.420Z,1.42
2019-01-10T01:58:11.885Z,1.17
2019-01-10T02:00:42.565Z,1.40
2019-01-10T02:03:13.288Z,1.37
2019-01-10T02:05:43.672Z,1.45
2019-01-10T02:08:13.876Z,0.98
2019-01-10T02:10:43.970Z,1.25
2019-01-10T02:13:16.953Z,1.82
2019-01-10T02:15:46.420Z,1.22
2019-01-10T02:18:16.716Z,0.90
2019-01-10T02:20:48.525Z,1.22
2019-01-10T02:23:18.942Z,1.37
2019-01-10T02:25:49.279Z,1.62
2019-01-10T02:28:19.370Z,1.12
2019-01-10T02:30:50.000Z,1.75
2019-01-10T02:33:20.701Z,1.30
2019-01-10T02:35:51.326Z,0.98
2019-01-10T02:38:21.547Z,1.90
2019-01-10T02:40:51.864Z,1.65
2019-01-10T02:43:26.663Z,1.10
2019-01-10T02:45:54.473Z,1.20
2019-01-10T02:48:24.996Z,1.15
2019-01-10T02:50:55.711Z,1.17
2019-01-10T02:53:26.326Z,1.00
2019-01-10T02:55:57.251Z,1.15
2019-01-10T02:58:27.709Z,1.70
2019-01-10T03:00:58.025Z,1.10
2019-01-10T03:03:29.209Z,0.88
2019-01-10T03:06:00.129Z,0.68
2019-01-10T03:08:30.706Z,0.90
2019-01-10T03:11:01.373Z,1.00
2019-01-10T03:13:36.571Z,1.05
2019-01-10T03:16:03.397Z,1.07
2019-01-10T03:18:33.769Z,0.88
2019-01-10T03:21:04.028Z,0.80
2019-01-10T03:23:34.623Z,1.37
2019-01-10T03:26:05.110Z,1.27
2019-01-10T03:28:35.577Z,0.62
2019-01-10T03:31:05.849Z,0.82
2019-01-10T03:33:36.382Z,1.25
2019-01-10T03:36:06.729Z,0.70
2019-01-10T03:38:37.414Z,0.80
2019-01-10T03:41:08.028Z,0.70
2019-01-10T03:43:46.690Z,0.85
2019-01-10T03:46:12.462Z,1.07
2019-01-10T03:48:42.824Z,2.05
2019-01-10T03:51:13.209Z,1.07
2019-01-10T03:53:43.443Z,1.07
2019-01-10T03:56:13.907Z,1.15
2019-01-10T03:58:44.295Z,0.95
2019-01-10T04:01:14.393Z,1.07
2019-01-10T04:03:44.980Z,1.05
2019-01-10T04:06:15.570Z,1.00
2019-01-10T04:08:46.927Z,1.00
2019-01-10T04:11:17.479Z,1.27
2019-01-10T04:13:57.058Z,1.47
2019-01-10T04:16:19.751Z,1.07
2019-01-10T04:18:49.956Z,1.05
2019-01-10T04:21:20.501Z,1.00
2019-01-10T04:23:52.676Z,0.82
2019-01-10T04:26:22.710Z,1.00
2019-01-10T04:28:53.956Z,0.98
2019-01-10T04:31:24.336Z,0.80
2019-01-10T04:33:54.879Z,0.98
2019-01-10T04:36:25.477Z,0.90
2019-01-10T04:38:55.963Z,0.78
2019-01-10T04:41:26.188Z,0.90
2019-01-10T04:43:56.537Z,0.70
2019-01-10T04:46:27.342Z,1.00
2019-01-10T04:48:58.365Z,0.90
2019-01-10T04:51:28.856Z,0.80
2019-01-10T04:53:58.989Z,1.05
2019-01-10T04:56:29.387Z,0.90
2019-01-10T04:58:59.584Z,0.90
2019-01-10T05:01:29.734Z,0.72
2019-01-10T05:04:00.029Z,1.12
2019-01-10T05:06:30.490Z,0.80
2019-01-10T05:09:01.038Z,0.93
2019-01-10T05:11:31.436Z,1.02
2019-01-10T05:14:01.859Z,1.70
2019-01-10T05:16:32.282Z,0.90
2019-01-10T05:19:02.788Z,1.10
2019-01-10T05:21:33.022Z,1.17
2019-01-10T05:24:03.499Z,1.10
2019-01-10T05:26:33.686Z,1.27
2019-01-10T05:29:03.830Z,1.17
2019-01-10T05:31:34.160Z,0.88
2019-01-10T05:34:05.862Z,0.88
2019-01-10T05:36:36.829Z,1.17
2019-01-10T05:39:08.434Z,1.32
2019-01-10T05:41:38.726Z,0.80
2019-01-10T05:44:09.013Z,1.20
2019-01-10T05:46:48.128Z,0.95
2019-01-10T05:49:11.827Z,1.05
2019-01-10T05:51:42.034Z,1.00
2019-01-10T05:54:12.543Z,1.07
2019-01-10T05:56:42.628Z,1.25
2019-01-10T05:59:12.847Z,0.85
2019-01-10T06:01:43.321Z,0.90
2019-01-10T06:04:13.333Z,0.88
2019-01-10T06:06:43.778Z,0.98
2019-01-10T06:09:14.395Z,1.35
2019-01-10T06:11:44.400Z,1.90
2019-01-10T06:14:14.593Z,1.65
2019-01-10T06:16:45.291Z,1.90
2019-01-10T06:19:15.763Z,2.10
2019-01-10T06:21:46.126Z,2.00
2019-01-10T06:24:16.719Z,2.10
2019-01-10T06:26:47.630Z,2.50
2019-01-10T06:29:18.197Z,2.83
2019-01-10T06:31:48.994Z,2.85
2019-01-10T06:34:19.413Z,2.50
2019-01-10T06:36:49.666Z,2.93
2019-01-10T06:39:20.480Z,2.55
2019-01-10T06:41:50.808Z,2.83
2019-01-10T06:44:21.590Z,3.10
2019-01-10T06:46:52.027Z,3.07
2019-01-10T06:49:22.329Z,2.90
2019-01-10T06:51:52.819Z,2.58
2019-01-10T06:54:23.125Z,2.98
2019-01-10T06:56:53.182Z,2.65
2019-01-10T06:59:23.262Z,2.13
2019-01-10T07:01:53.513Z,2.50
2019-01-10T07:04:23.852Z,2.23
2019-01-10T07:06:54.084Z,2.08
2019-01-10T07:09:24.126Z,2.00
2019-01-10T07:11:54.227Z,1.83
2019-01-10T07:14:24.315Z,1.50
2019-01-10T07:16:54.295Z,1.70
2019-01-10T07:19:30.359Z,1.85
2019-01-10T07:22:00.329Z,1.70
2019-01-10T07:24:30.418Z,1.60
2019-01-10T07:27:00.736Z,2.12
2019-01-10T07:29:30.957Z,1.60
2019-01-10T07:32:01.120Z,1.70
2019-01-10T07:34:31.632Z,1.90
2019-01-10T07:37:02.131Z,2.20
2019-01-10T07:39:36.945Z,3.20
2019-01-10T07:42:07.561Z,3.33
2019-01-10T07:44:39.095Z,3.40
2019-01-10T07:47:09.711Z,3.83
2019-01-10T07:49:39.829Z,3.47
2019-01-10T07:52:09.880Z,4.65
2019-01-10T07:54:39.932Z,3.55
2019-01-10T07:57:10.300Z,4.40
2019-01-10T07:59:40.543Z,4.60
2019-01-10T08:02:10.879Z,3.60
2019-01-10T08:04:41.142Z,4.10
2019-01-10T08:07:12.137Z,5.05
2019-01-10T08:09:42.163Z,3.62
2019-01-10T08:12:12.210Z,3.93
2019-01-10T08:14:42.527Z,3.90
2019-01-10T08:17:16.173Z,4.40
2019-01-10T08:19:44.907Z,4.50
2019-01-10T08:22:15.412Z,4.70
2019-01-10T08:24:45.666Z,4.37
2019-01-10T08:27:16.022Z,5.22
2019-01-10T08:29:46.533Z,4.53
2019-01-10T08:32:16.895Z,4.73
2019-01-10T08:34:47.330Z,5.45
2019-01-10T08:37:17.497Z,5.05
2019-01-10T08:39:47.385Z,5.45
2019-01-10T08:42:17.340Z,4.90
2019-01-10T08:44:47.590Z,5.08
2019-01-10T08:47:17.823Z,4.47
2019-01-10T08:49:48.518Z,5.10
2019-01-10T08:52:18.463Z,4.80
2019-01-10T08:54:48.760Z,4.60
2019-01-10T08:57:18.975Z,5.03
2019-01-10T08:59:49.191Z,4.85
2019-01-10T09:02:19.604Z,4.80
2019-01-10T09:04:50.163Z,4.05
2019-01-10T09:07:20.488Z,4.87
2019-01-10T09:09:51.003Z,4.78
2019-01-10T09:12:22.251Z,4.97
2019-01-10T09:14:52.903Z,4.37
2019-01-10T09:17:23.103Z,5.15
2019-01-10T09:19:53.108Z,4.85
2019-01-10T09:22:23.318Z,4.53
2019-01-10T09:24:53.812Z,5.17
2019-01-10T09:27:24.093Z,4.57
2019-01-10T09:29:54.249Z,5.08
2019-01-10T09:32:24.765Z,4.77
2019-01-10T09:34:55.030Z,5.67
2019-01-10T09:37:25.323Z,4.37
2019-01-10T09:39:55.817Z,5.10
2019-01-10T09:42:26.793Z,4.10
2019-01-10T09:44:57.195Z,5.15
2019-01-10T09:47:27.303Z,4.33
2019-01-10T09:49:57.619Z,5.10
2019-01-10T09:52:28.050Z,4.27
2019-01-10T09:54:58.606Z,5.17
2019-01-10T09:57:29.064Z,4.83
2019-01-10T09:59:59.413Z,4.07
2019-01-10T10:02:29.601Z,4.53
2019-01-10T10:05:00.799Z,4.30
2019-01-10T10:07:31.240Z,4.57
2019-01-10T10:10:01.472Z,4.70
2019-01-10T10:12:31.427Z,4.10
2019-01-10T10:15:01.618Z,4.00
2019-01-10T10:17:31.957Z,4.80
2019-01-10T10:20:03.646Z,4.70
2019-01-10T10:22:34.355Z,5.20
2019-01-10T10:25:05.250Z,4.40
2019-01-10T10:27:36.153Z,5.70
2019-01-10T10:30:10.203Z,5.03
2019-01-10T10:32:40.765Z,4.87
2019-01-10T10:35:11.500Z,5.65
2019-01-10T10:37:41.918Z,4.95
2019-01-10T10:40:15.330Z,4.45
2019-01-10T10:42:45.937Z,5.17
2019-01-10T10:45:18.835Z,4.47
2019-01-10T10:47:49.338Z,5.87
2019-01-10T10:50:22.675Z,5.23
2019-01-10T10:52:53.206Z,5.13
2019-01-10T10:55:24.145Z,5.53
2019-01-10T10:57:55.329Z,5.10
2019-01-10T11:00:27.693Z,5.03
2019-01-10T11:02:59.868Z,4.77
2019-01-10T11:05:30.809Z,5.27
2019-01-10T11:08:01.351Z,5.10
2019-01-10T11:10:31.610Z,5.10
2019-01-10T11:13:02.093Z,5.23
2019-01-10T11:15:32.389Z,5.20
2019-01-10T11:18:02.419Z,4.93
2019-01-10T11:20:32.618Z,4.40
2019-01-10T11:23:10.518Z,5.17
2019-01-10T11:25:37.601Z,4.87
2019-01-10T11:28:08.012Z,5.33
2019-01-10T11:30:38.257Z,4.63
2019-01-10T11:33:08.498Z,5.13
2019-01-10T11:35:38.499Z,6.00
2019-01-10T11:38:08.650Z,4.50
2019-01-10T11:40:38.983Z,4.50
2019-01-10T11:43:09.184Z,4.47
2019-01-10T11:45:39.454Z,4.57
2019-01-10T11:48:09.526Z,4.83
2019-01-10T11:50:39.984Z,4.47
2019-01-10T11:53:10.096Z,4.00
2019-01-10T11:55:40.063Z,4.87
2019-01-10T11:58:10.147Z,4.37
2019-01-10T12:00:40.704Z,5.60
2019-01-10T12:03:11.519Z,5.50
2019-01-10T12:05:47.580Z,4.53
2019-01-10T12:08:14.310Z,4.80
2019-01-10T12:10:44.804Z,4.70
2019-01-10T12:13:14.977Z,4.87
2019-01-10T12:15:45.267Z,5.10
2019-01-10T12:18:15.715Z,4.57
2019-01-10T12:20:45.804Z,4.47
2019-01-10T12:23:16.910Z,4.60
2019-01-10T12:25:46.944Z,4.87
2019-01-10T12:28:17.064Z,5.57
2019-01-10T12:30:47.332Z,6.43
2019-01-10T12:33:17.499Z,9.67
2019-01-10T12:35:47.950Z,9.27
2019-01-10T12:38:19.312Z,5.57
2019-01-10T12:40:49.870Z,5.30
2019-01-10T12:43:20.409Z,4.50
2019-01-10T12:45:50.497Z,4.43
2019-01-10T12:48:20.663Z,4.13
2019-01-10T12:50:51.063Z,4.00
2019-01-10T12:53:22.313Z,4.60
2019-01-10T12:55:52.520Z,4.57
2019-01-10T12:58:22.901Z,5.63
2019-01-10T13:00:53.002Z,6.70
2019-01-10T13:03:23.425Z,6.20
2019-01-10T13:05:53.945Z,4.10
2019-01-10T13:08:23.852Z,4.07
2019-01-10T13:10:53.947Z,4.20
2019-01-10T13:13:24.039Z,3.93
2019-01-10T13:15:54.387Z,4.57
2019-01-10T13:18:24.566Z,3.50
2019-01-10T13:20:54.921Z,3.70
2019-01-10T13:23:24.802Z,3.93
2019-01-10T13:25:59.694Z,3.50
2019-01-10T13:28:26.934Z,5.07
2019-01-10T13:30:57.306Z,3.23
2019-01-10T13:33:27.407Z,3.37
2019-01-10T13:35:57.729Z,3.33
2019-01-10T13:38:28.238Z,3.80
2019-01-10T13:40:58.724Z,3.67
2019-01-10T13:43:29.139Z,3.53
2019-01-10T13:45:59.372Z,3.37
2019-01-10T13:48:29.337Z,3.33
2019-01-10T13:50:59.665Z,3.23
2019-01-10T13:53:30.025Z,2.87
2019-01-10T13:56:00.005Z,2.33
2019-01-10T13:58:30.194Z,2.57
2019-01-10T14:01:00.293Z,3.10
2019-01-10T14:03:30.400Z,2.52
2019-01-10T14:06:00.447Z,2.30
2019-01-10T14:08:30.372Z,2.22
2019-01-10T14:11:00.499Z,2.23
2019-01-10T14:13:30.545Z,2.10
2019-01-10T14:16:00.613Z,2.58
2019-01-10T14:18:30.571Z,2.63
2019-01-10T14:21:00.895Z,2.87
2019-01-10T14:23:32.233Z,2.83
2019-01-10T14:26:02.511Z,3.03
2019-01-10T14:28:33.009Z,2.60
2019-01-10T14:31:03.402Z,2.50
2019-01-10T14:33:33.694Z,2.67
2019-01-10T14:36:04.227Z,2.37
2019-01-10T14:38:34.739Z,2.83
2019-01-10T14:41:04.983Z,2.53
2019-01-10T14:43:35.339Z,2.13
2019-01-10T14:46:05.812Z,2.53
2019-01-10T14:48:36.432Z,2.37
2019-01-10T14:51:06.908Z,1.93
2019-01-10T14:53:37.256Z,1.70
2019-01-10T14:56:07.816Z,2.17
2019-01-10T14:58:37.996Z,3.77
2019-01-10T15:01:09.444Z,3.33
2019-01-10T15:03:41.020Z,3.02
2019-01-10T15:06:13.522Z,1.70
2019-01-10T15:08:44.892Z,1.72
2019-01-10T15:11:16.042Z,1.92
2019-01-10T15:13:46.567Z,2.62
2019-01-10T15:16:17.260Z,2.45
2019-01-10T15:18:47.625Z,2.80
2019-01-10T15:21:17.944Z,2.87
2019-01-10T15:23:48.109Z,2.83
2019-01-10T15:26:18.007Z,3.33
2019-01-10T15:28:48.256Z,3.00
2019-01-10T15:31:19.003Z,3.27
2019-01-10T15:33:49.706Z,3.07
2019-01-10T15:36:20.029Z,2.70
2019-01-10T15:38:50.439Z,3.45
2019-01-10T15:41:21.009Z,3.20
2019-01-10T15:43:51.330Z,2.40
2019-01-10T15:46:21.604Z,2.83
2019-01-10T15:48:51.980Z,2.58
2019-01-10T15:51:22.013Z,3.50
2019-01-10T15:53:53.245Z,3.80
2019-01-10T15:56:23.562Z,3.50
2019-01-10T15:58:53.873Z,2.60
2019-01-10T16:01:24.306Z,2.72
2019-01-10T16:03:54.912Z,3.40
2019-01-10T16:06:25.243Z,3.02
2019-01-10T16:08:55.576Z,2.77
2019-01-10T16:11:25.631Z,3.12
2019-01-10T16:13:55.723Z,3.25
2019-01-10T16:16:25.887Z,3.40
2019-01-10T16:18:56.334Z,4.67
2019-01-10T16:21:26.599Z,5.03
2019-01-10T16:23:56.913Z,4.22
2019-01-10T16:26:29.307Z,4.30
2019-01-10T16:28:59.578Z,3.52
2019-01-10T16:31:29.790Z,3.50
2019-01-10T16:34:00.008Z,3.00
2019-01-10T16:36:30.388Z,2.85
2019-01-10T16:39:00.826Z,3.08
2019-01-10T16:41:30.782Z,2.65
2019-01-10T16:44:00.855Z,2.77
2019-01-10T16:46:31.639Z,2.65
2019-01-10T16:49:02.125Z,2.55
2019-01-10T16:51:32.942Z,3.02
2019-01-10T16:54:03.588Z,3.02
2019-01-10T16:56:33.919Z,3.42
2019-01-10T16:59:04.384Z,3.35
2019-01-10T17:01:34.879Z,2.80
2019-01-10T17:04:05.528Z,3.15
2019-01-10T17:06:36.456Z,3.20
2019-01-10T17:09:08.270Z,3.35
2019-01-10T17:11:38.864Z,3.65
2019-01-10T17:14:09.395Z,3.55
2019-01-10T17:16:40.277Z,4.95
2019-01-10T17:19:10.641Z,3.65
2019-01-10T17:21:41.187Z,4.33
2019-01-10T17:24:11.583Z,4.17
2019-01-10T17:26:41.826Z,4.22
2019-01-10T17:29:12.560Z,4.25
2019-01-10T17:31:43.192Z,4.65
2019-01-10T17:34:13.580Z,5.35
2019-01-10T17:36:44.165Z,5.47
2019-01-10T17:39:15.896Z,7.03
2019-01-10T17:41:46.255Z,9.18
2019-01-10T17:44:16.683Z,5.08
2019-01-10T17:46:47.046Z,4.10
2019-01-10T17:49:17.317Z,3.55
2019-01-10T17:51:47.939Z,3.90
2019-01-10T17:54:19.364Z,3.37
2019-01-10T17:56:50.445Z,3.42
2019-01-10T17:59:21.013Z,4.28
2019-01-10T18:01:51.151Z,4.10
2019-01-10T18:04:21.635Z,3.30
2019-01-10T18:06:52.451Z,3.55
2019-01-10T18:09:22.948Z,2.63
2019-01-10T18:11:53.294Z,2.63
2019-01-10T18:14:23.736Z,2.58
2019-01-10T18:16:54.055Z,2.80
2019-01-10T18:19:25.030Z,2.72
2019-01-10T18:21:56.253Z,4.35
2019-01-10T18:24:27.262Z,3.53
2019-01-10T18:26:58.130Z,4.20
2019-01-10T18:29:32.758Z,4.80
2019-01-10T18:32:01.419Z,3.83
2019-01-10T18:34:33.019Z,3.10
2019-01-10T18:37:03.693Z,3.33
2019-01-10T18:39:34.056Z,2.85
2019-01-10T18:42:04.547Z,2.60
2019-01-10T18:44:35.568Z,2.85
2019-01-10T18:47:06.308Z,3.10
2019-01-10T18:49:37.083Z,2.90
2019-01-10T18:52:07.434Z,3.45
2019-01-10T18:54:37.896Z,2.67
2019-01-10T18:57:09.085Z,2.93
2019-01-10T18:59:40.480Z,2.67
2019-01-10T19:02:10.754Z,3.00
2019-01-10T19:04:40.859Z,3.27
2019-01-10T19:07:11.161Z,3.58
2019-01-10T19:09:41.394Z,3.60
2019-01-10T19:12:11.591Z,3.00
2019-01-10T19:14:41.950Z,3.67
2019-01-10T19:17:12.592Z,2.65
2019-01-10T19:19:42.733Z,2.47
2019-01-10T19:22:13.155Z,3.62
2019-01-10T19:24:43.371Z,3.30
2019-01-10T19:27:13.696Z,3.20
2019-01-10T19:29:43.989Z,2.70
2019-01-10T19:32:14.436Z,2.72
2019-01-10T19:34:44.711Z,3.40
2019-01-10T19:37:15.586Z,2.70
2019-01-10T19:39:45.823Z,2.65
2019-01-10T19:42:16.461Z,2.70
2019-01-10T19:44:55.508Z,2.87
2019-01-10T19:47:29.557Z,3.10
2019-01-10T19:50:00.447Z,3.08
2019-01-10T19:52:31.283Z,2.72
2019-01-10T19:55:01.812Z,2.70
2019-01-10T19:57:33.114Z,2.95
2019-01-10T20:00:05.787Z,2.90
2019-01-10T20:02:36.740Z,2.87
2019-01-10T20:05:08.233Z,3.22
2019-01-10T20:07:38.846Z,2.92
2019-01-10T20:10:15.137Z,3.52
2019-01-10T20:12:45.678Z,3.15
2019-01-10T20:15:16.066Z,3.22
2019-01-10T20:17:47.095Z,3.87
2019-01-10T20:20:29.810Z,4.33
2019-01-10T20:23:00.315Z,4.37
2019-01-10T20:25:30.575Z,3.90
2019-01-10T20:28:00.622Z,4.42
2019-01-10T20:30:30.829Z,4.55
2019-01-10T20:33:01.103Z,4.70
2019-01-10T20:35:31.804Z,4.90
2019-01-10T20:38:02.840Z,5.55
2019-01-10T20:40:33.140Z,5.12
2019-01-10T20:43:03.851Z,5.30
2019-01-10T20:45:34.395Z,6.17
2019-01-10T20:48:04.719Z,5.20
2019-01-10T20:50:35.550Z,5.28
2019-01-10T20:53:06.004Z,6.05
2019-01-10T20:55:36.964Z,5.05
2019-01-10T20:58:08.266Z,4.90
2019-01-10T21:00:38.971Z,6.00
2019-01-10T21:03:09.563Z,6.17
2019-01-10T21:05:40.866Z,5.85
2019-01-10T21:08:11.772Z,6.08
2019-01-10T21:10:43.281Z,6.12
2019-01-10T21:13:14.441Z,6.22
2019-01-10T21:15:45.013Z,6.45
2019-01-10T21:18:16.154Z,6.15
2019-01-10T21:20:46.477Z,5.95
2019-01-10T21:23:18.129Z,7.00
2019-01-10T21:25:49.108Z,5.90
2019-01-10T21:28:19.905Z,6.30
2019-01-10T21:30:50.575Z,6.53
2019-01-10T21:33:22.736Z,7.05
2019-01-10T21:35:53.673Z,7.33
2019-01-10T21:38:24.357Z,6.70
2019-01-10T21:40:55.314Z,7.30
2019-01-10T21:43:25.679Z,6.25
2019-01-10T21:45:57.649Z,6.67
2019-01-10T21:48:34.880Z,6.92
2019-01-10T21:51:01.264Z,7.17
2019-01-10T21:53:32.892Z,6.90
2019-01-10T21:56:04.023Z,7.58
2019-01-10T21:58:34.162Z,7.28
2019-01-10T22:01:04.685Z,8.75
2019-01-10T22:03:34.886Z,8.10
2019-01-10T22:06:04.943Z,7.75
2019-01-10T22:08:35.059Z,9.10
2019-01-10T22:11:05.785Z,8.53
2019-01-10T22:13:36.713Z,8.80
2019-01-10T22:16:07.789Z,8.65
2019-01-10T22:18:41.609Z,9.00
2019-01-10T22:21:10.634Z,8.53
2019-01-10T22:23:41.146Z,8.53
2019-01-10T22:26:12.000Z,8.15
2019-01-10T22:28:42.633Z,8.85
2019-01-10T22:31:12.853Z,9.13
2019-01-10T22:33:42.979Z,9.13
2019-01-10T22:36:14.433Z,9.00
2019-01-10T22:38:45.091Z,8.65
2019-01-10T22:41:16.031Z,8.98
2019-01-10T22:43:46.142Z,8.95
2019-01-10T22:46:16.506Z,8.90
2019-01-10T22:48:47.916Z,8.33
2019-01-10T22:51:19.372Z,8.63
2019-01-10T22:53:49.607Z,8.50
2019-01-10T22:56:20.136Z,8.63
2019-01-10T22:58:51.241Z,7.80
2019-01-10T23:01:26.309Z,8.85
2019-01-10T23:03:56.681Z,9.63
2019-01-10T23:06:27.402Z,8.43
2019-01-10T23:08:58.247Z,8.70
2019-01-10T23:11:28.748Z,8.93
2019-01-10T23:13:59.094Z,8.95
2019-01-10T23:16:30.415Z,9.03
2019-01-10T23:19:01.511Z,8.83
2019-01-10T23:21:32.107Z,8.73
2019-01-10T23:24:03.005Z,8.90
2019-01-10T23:26:33.634Z,9.80
2019-01-10T23:29:04.216Z,9.43
2019-01-10T23:31:34.654Z,9.45
2019-01-10T23:34:07.467Z,10.05
2019-01-10T23:36:38.163Z,10.40
2019-01-10T23:39:13.346Z,11.00
2019-01-10T23:41:43.768Z,10.43
2019-01-10T23:44:14.369Z,11.10
2019-01-10T23:46:44.930Z,12.03
2019-01-10T23:49:15.337Z,11.90
2019-01-10T23:51:45.915Z,12.50
2019-01-10T23:54:16.339Z,11.88
2019-01-10T23:56:46.893Z,12.82
2019-01-10T23:59:17.426Z,12.75
